MMPG 090040Z 12008KT 10SM SKC 22/03 A2993 RMK HZY= 090040

MMPG 082340Z 12006KT 10SM SKC 25/03 A2993 RMK HZY= 082340

MMPG 082240Z 12006KT 10SM SKC 27/03 A2993 RMK HZY= 082240

MMPG 082141Z 12006KT 10SM SKC 27/02 A2993 RMK HZY= 082141

MMPG 082041Z 12007KT 10SM SKC 27/03 A2995 RMK HZY= 082040

MMPG 081942Z 12006KT 10SM SKC 26/03 A2997 RMK HZY= 081942

MMPG 081540Z 00000KT 10SM SKC 13/02 A3008 RMK HZY= 081540

MMPG 081440Z 00000KT 10SM SKC 09/01 A3006 RMK HZY= 081440

MMPG 081340Z 00000KT 10SM SKC 07/00 A3003= 081339

MMPG 081253Z 00000KT 10SM SKC 07/00 A3001 RMK RTS= 081254

MMPG 080040Z 12004KT 10SM SKC 18/01 A2993= 080040

MMPG 072341Z 12005KT 10SM SKC 21/00 A2993= 072342

MMPG 072240Z 12006KT 10SM SKC 23/M01 A2991= 072240

MMPG 072140Z 12006KT 10SM SKC 23/M02 A2991= 072140

MMPG 072042Z 12006KT 10SM SKC 22/M03 A2993= 072042

MMPG 071942Z 12006KT 10SM SKC 21/M06 A2997= 071942

MMPG 071840Z 12007KT 10SM SKC 19/M04 A3003= 071840

MMPG 071740Z 12007KT 10SM SKC 17/M04 A3007= 071740

MMPG 071640Z 12005KT 10SM SKC 15/M04 A3011= 071639

MMPG 071540Z 09006KT 10SM SKC 13/M04 A3011= 071539

MMPG 071440Z 09007KT 10SM SKC 08/M03 A3010= 071439

MMPG 071340Z 00000KT 10SM FEW050 07/M03 A3010 RMK 8/500 HZY= 071340

MMPG 071253Z 00000KT 10SM SCT050 07/M04 A3009 RMK 8/500 HZY RTS= 071254

MMPG 062154Z 30020KT 8SM SCT200 18/15 A3017 RMK 8/003 HZY= 062154

MMPG 061942Z 30020KT 8SM SCT200 18/15 A3020 RMK 8/003 HZY= 061943

MMPG 061745Z 30028KT 8SM SCT200 17/15 A3019 RMK 8/003 HZY= 061744

MMPG 061641Z 30028KT 6SM SCT015 BKN150 17/15 A3019 RMK 8/55/ HZ= 061642

MMPG 061542Z 30018KT 8SM OVC005 16/14 A3009 RMK 8/6// HZY= 061542

MMPG 061500Z RTD 30012KT 1/2SM FG VV003 16/14 A3007 RMK 8////= 061500

SPECI MMPG 061418Z 30006KT 1/4SM FG VV002 16/14 A3000 RMK 8////= 061418

MMPG 061351Z 09004KT 3SM BR SCT100 16/14 A3000 RMK 8/050= 061351

MMPG 061250Z 12006KT 8SM SCT100 16/14 A2987 RMK 8/050 HZY RTS= 061250